sensor_id;sensor_type;location;lat;lon;timestamp;pressure;altitude;pressure_sealevel;temperature;humidity
18500;BME280;9379;52.134;11.576;2023-02-03T00:00:39;101459.34;;;6.09;100.00
18500;BME280;9379;52.134;11.576;2023-02-03T00:03:07;101464.72;;;5.74;100.00
18500;BME280;9379;52.134;11.576;2023-02-03T00:05:34;101452.47;;;5.91;100.00
18500;BME280;9379;52.134;11.576;2023-02-03T00:08:03;101458.34;;;5.78;100.00
18500;BME280;9379;52.134;11.576;2023-02-03T00:10:30;101437.59;;;5.88;100.00
18500;BME280;9379;52.134;11.576;2023-02-03T00:12:58;101437.25;;;5.78;100.00
18500;BME280;9379;52.134;11.576;2023-02-03T00:15:25;101417.16;;;5.76;100.00
18500;BME280;9379;52.134;11.576;2023-02-03T00:17:52;101417.66;;;5.67;100.00
18500;BME280;9379;52.134;11.576;2023-02-03T00:20:20;101417.72;;;5.98;100.00
18500;BME280;9379;52.134;11.576;2023-02-03T00:22:47;101414.91;;;6.01;100.00
18500;BME280;9379;52.134;11.576;2023-02-03T00:25:14;101420.66;;;6.24;100.00
18500;BME280;9379;52.134;11.576;2023-02-03T00:27:41;101413.56;;;5.94;100.00
18500;BME280;9379;52.134;11.576;2023-02-03T00:30:09;101414.13;;;5.83;100.00
18500;BME280;9379;52.134;11.576;2023-02-03T00:32:36;101403.66;;;5.82;100.00
18500;BME280;9379;52.134;11.576;2023-02-03T00:35:04;101400.31;;;5.78;100.00
18500;BME280;9379;52.134;11.576;2023-02-03T00:37:32;101388.31;;;5.89;100.00
18500;BME280;9379;52.134;11.576;2023-02-03T00:39:59;101363.59;;;5.60;100.00
18500;BME280;9379;52.134;11.576;2023-02-03T00:42:26;101362.97;;;5.86;100.00
18500;BME280;9379;52.134;11.576;2023-02-03T00:44:52;101357.53;;;5.73;100.00
18500;BME280;9379;52.134;11.576;2023-02-03T00:47:19;101356.78;;;5.71;100.00
18500;BME280;9379;52.134;11.576;2023-02-03T00:49:46;101361.50;;;6.12;100.00
18500;BME280;9379;52.134;11.576;2023-02-03T00:52:14;101353.97;;;5.74;100.00
18500;BME280;9379;52.134;11.576;2023-02-03T00:54:42;101352.88;;;5.94;100.00
18500;BME280;9379;52.134;11.576;2023-02-03T00:57:09;101348.34;;;5.65;100.00
18500;BME280;9379;52.134;11.576;2023-02-03T00:59:36;101342.22;;;5.64;100.00
18500;BME280;9379;52.134;11.576;2023-02-03T01:02:03;101335.56;;;5.89;100.00
18500;BME280;9379;52.134;11.576;2023-02-03T01:04:30;101326.22;;;5.67;100.00
18500;BME280;9379;52.134;11.576;2023-02-03T01:06:57;101339.34;;;5.69;100.00
18500;BME280;9379;52.134;11.576;2023-02-03T01:09:24;101337.91;;;5.95;100.00
18500;BME280;9379;52.134;11.576;2023-02-03T01:11:52;101335.22;;;6.10;100.00
18500;BME280;9379;52.134;11.576;2023-02-03T01:14:19;101324.75;;;6.39;100.00
18500;BME280;9379;52.134;11.576;2023-02-03T01:16:46;101309.28;;;5.87;100.00
18500;BME280;9379;52.134;11.576;2023-02-03T01:19:13;101310.38;;;5.99;100.00
18500;BME280;9379;52.134;11.576;2023-02-03T01:21:41;101295.19;;;6.18;100.00
18500;BME280;9379;52.134;11.576;2023-02-03T01:24:08;101291.91;;;5.99;100.00
18500;BME280;9379;52.134;11.576;2023-02-03T01:26:35;101301.34;;;5.87;100.00
18500;BME280;9379;52.134;11.576;2023-02-03T01:29:03;101287.91;;;6.52;100.00
18500;BME280;9379;52.134;11.576;2023-02-03T01:31:32;101287.13;;;6.35;100.00
18500;BME280;9379;52.134;11.576;2023-02-03T01:33:59;101287.53;;;6.13;100.00
18500;BME280;9379;52.134;11.576;2023-02-03T01:36:28;101277.31;;;5.93;100.00
18500;BME280;9379;52.134;11.576;2023-02-03T01:38:55;101265.50;;;6.14;100.00
18500;BME280;9379;52.134;11.576;2023-02-03T01:41:24;101264.78;;;5.97;100.00
18500;BME280;9379;52.134;11.576;2023-02-03T01:43:53;101260.78;;;6.20;100.00
18500;BME280;9379;52.134;11.576;2023-02-03T01:46:30;101250.97;;;6.22;100.00
18500;BME280;9379;52.134;11.576;2023-02-03T01:49:04;101250.03;;;6.23;100.00
18500;BME280;9379;52.134;11.576;2023-02-03T01:51:34;101258.84;;;5.93;100.00
18500;BME280;9379;52.134;11.576;2023-02-03T01:54:03;101255.09;;;6.11;100.00
18500;BME280;9379;52.134;11.576;2023-02-03T01:56:33;101244.63;;;6.54;100.00
18500;BME280;9379;52.134;11.576;2023-02-03T01:59:01;101238.78;;;6.49;100.00
18500;BME280;9379;52.134;11.576;2023-02-03T02:01:30;101233.09;;;6.55;100.00
18500;BME280;9379;52.134;11.576;2023-02-03T02:04:00;101237.53;;;6.55;100.00
18500;BME280;9379;52.134;11.576;2023-02-03T02:06:28;101225.53;;;6.92;100.00
18500;BME280;9379;52.134;11.576;2023-02-03T02:08:56;101221.31;;;6.89;100.00
18500;BME280;9379;52.134;11.576;2023-02-03T02:11:25;101208.38;;;7.26;100.00
18500;BME280;9379;52.134;11.576;2023-02-03T02:13:54;101196.06;;;7.39;100.00
18500;BME280;9379;52.134;11.576;2023-02-03T02:16:32;101202.75;;;7.18;100.00
18500;BME280;9379;52.134;11.576;2023-02-03T02:19:15;101204.84;;;7.40;100.00
18500;BME280;9379;52.134;11.576;2023-02-03T02:22:05;101187.03;;;7.56;100.00
18500;BME280;9379;52.134;11.576;2023-02-03T02:24:54;101184.47;;;7.27;100.00
18500;BME280;9379;52.134;11.576;2023-02-03T02:30:35;101148.72;;;7.61;100.00
18500;BME280;9379;52.134;11.576;2023-02-03T02:33:19;101147.38;;;7.69;100.00
18500;BME280;9379;52.134;11.576;2023-02-03T02:35:57;101142.59;;;7.74;100.00
18500;BME280;9379;52.134;11.576;2023-02-03T02:38:39;101140.31;;;8.07;100.00
18500;BME280;9379;52.134;11.576;2023-02-03T02:41:18;101150.78;;;8.09;100.00
18500;BME280;9379;52.134;11.576;2023-02-03T02:43:52;101149.81;;;7.97;100.00
18500;BME280;9379;52.134;11.576;2023-02-03T02:46:25;101143.91;;;8.19;100.00
18500;BME280;9379;52.134;11.576;2023-02-03T02:48:59;101139.03;;;8.26;100.00
18500;BME280;9379;52.134;11.576;2023-02-03T02:51:28;101128.34;;;8.40;100.00
18500;BME280;9379;52.134;11.576;2023-02-03T02:53:58;101126.97;;;8.47;100.00
18500;BME280;9379;52.134;11.576;2023-02-03T02:56:26;101119.56;;;8.39;100.00
18500;BME280;9379;52.134;11.576;2023-02-03T02:58:56;101131.72;;;8.42;100.00
18500;BME280;9379;52.134;11.576;2023-02-03T03:01:24;101134.06;;;8.46;100.00
18500;BME280;9379;52.134;11.576;2023-02-03T03:03:51;101123.63;;;8.56;100.00
18500;BME280;9379;52.134;11.576;2023-02-03T03:06:22;101135.13;;;8.57;100.00
18500;BME280;9379;52.134;11.576;2023-02-03T03:08:53;101117.59;;;8.54;100.00
18500;BME280;9379;52.134;11.576;2023-02-03T03:11:22;101117.69;;;8.65;100.00
18500;BME280;9379;52.134;11.576;2023-02-03T03:13:52;101106.69;;;8.59;100.00
18500;BME280;9379;52.134;11.576;2023-02-03T03:16:22;101104.84;;;8.72;100.00
18500;BME280;9379;52.134;11.576;2023-02-03T03:18:50;101089.44;;;8.53;100.00
18500;BME280;9379;52.134;11.576;2023-02-03T03:21:23;101070.47;;;8.59;100.00
18500;BME280;9379;52.134;11.576;2023-02-03T03:23:51;101072.16;;;8.60;100.00
18500;BME280;9379;52.134;11.576;2023-02-03T03:26:23;101078.78;;;8.66;100.00
18500;BME280;9379;52.134;11.576;2023-02-03T03:28:58;101094.44;;;8.82;100.00
18500;BME280;9379;52.134;11.576;2023-02-03T03:31:26;101102.25;;;8.59;100.00
18500;BME280;9379;52.134;11.576;2023-02-03T03:33:53;101097.06;;;8.58;100.00
18500;BME280;9379;52.134;11.576;2023-02-03T03:36:24;101084.19;;;8.64;100.00
18500;BME280;9379;52.134;11.576;2023-02-03T03:38:56;101054.16;;;8.76;100.00
18500;BME280;9379;52.134;11.576;2023-02-03T03:41:34;101035.59;;;8.76;100.00
18500;BME280;9379;52.134;11.576;2023-02-03T03:44:07;101078.66;;;8.67;100.00
18500;BME280;9379;52.134;11.576;2023-02-03T03:46:40;101113.09;;;8.80;100.00
18500;BME280;9379;52.134;11.576;2023-02-03T03:49:11;101088.72;;;8.75;100.00
18500;BME280;9379;52.134;11.576;2023-02-03T03:51:43;101101.13;;;8.74;100.00
18500;BME280;9379;52.134;11.576;2023-02-03T03:54:14;101107.03;;;8.78;100.00
18500;BME280;9379;52.134;11.576;2023-02-03T03:56:45;101098.53;;;8.86;100.00
18500;BME280;9379;52.134;11.576;2023-02-03T03:59:15;101078.06;;;9.12;100.00
18500;BME280;9379;52.134;11.576;2023-02-03T04:01:44;101084.69;;;9.06;100.00
18500;BME280;9379;52.134;11.576;2023-02-03T04:04:12;101080.50;;;9.15;100.00
18500;BME280;9379;52.134;11.576;2023-02-03T04:06:41;101086.97;;;8.87;100.00
18500;BME280;9379;52.134;11.576;2023-02-03T04:09:08;101060.19;;;8.78;100.00
18500;BME280;9379;52.134;11.576;2023-02-03T04:11:35;101071.66;;;9.03;100.00
18500;BME280;9379;52.134;11.576;2023-02-03T04:14:19;101050.03;;;8.96;100.00
18500;BME280;9379;52.134;11.576;2023-02-03T04:16:46;101063.75;;;8.90;100.00
18500;BME280;9379;52.134;11.576;2023-02-03T04:19:12;101047.50;;;8.95;100.00
18500;BME280;9379;52.134;11.576;2023-02-03T04:21:39;101054.78;;;9.04;100.00
18500;BME280;9379;52.134;11.576;2023-02-03T04:24:07;101054.84;;;9.15;100.00
18500;BME280;9379;52.134;11.576;2023-02-03T04:26:34;101037.56;;;9.10;100.00
18500;BME280;9379;52.134;11.576;2023-02-03T04:29:01;101026.59;;;9.14;100.00
18500;BME280;9379;52.134;11.576;2023-02-03T04:31:28;101023.09;;;9.14;100.00
18500;BME280;9379;52.134;11.576;2023-02-03T04:33:55;101014.94;;;9.17;100.00
18500;BME280;9379;52.134;11.576;2023-02-03T04:36:23;101018.78;;;9.24;100.00
18500;BME280;9379;52.134;11.576;2023-02-03T04:38:50;101014.81;;;9.18;100.00
18500;BME280;9379;52.134;11.576;2023-02-03T04:41:18;101003.50;;;9.27;100.00
18500;BME280;9379;52.134;11.576;2023-02-03T04:43:45;101002.06;;;9.34;100.00
18500;BME280;9379;52.134;11.576;2023-02-03T04:46:12;101000.88;;;9.27;100.00
18500;BME280;9379;52.134;11.576;2023-02-03T04:48:38;101013.59;;;9.22;100.00
18500;BME280;9379;52.134;11.576;2023-02-03T04:51:07;101018.69;;;9.36;100.00
18500;BME280;9379;52.134;11.576;2023-02-03T04:53:34;101019.53;;;9.37;100.00
18500;BME280;9379;52.134;11.576;2023-02-03T04:56:01;101010.25;;;9.31;100.00
18500;BME280;9379;52.134;11.576;2023-02-03T04:58:29;101012.69;;;9.46;100.00
18500;BME280;9379;52.134;11.576;2023-02-03T05:00:56;101014.16;;;9.50;100.00
18500;BME280;9379;52.134;11.576;2023-02-03T05:03:23;101010.91;;;9.57;100.00
18500;BME280;9379;52.134;11.576;2023-02-03T05:05:50;100995.22;;;9.54;100.00
18500;BME280;9379;52.134;11.576;2023-02-03T05:08:16;101006.56;;;9.45;100.00
18500;BME280;9379;52.134;11.576;2023-02-03T05:10:43;100998.28;;;9.61;100.00
18500;BME280;9379;52.134;11.576;2023-02-03T05:13:10;100985.34;;;9.56;100.00
18500;BME280;9379;52.134;11.576;2023-02-03T05:15:38;100989.34;;;9.62;100.00
18500;BME280;9379;52.134;11.576;2023-02-03T05:18:05;100991.50;;;9.68;100.00
18500;BME280;9379;52.134;11.576;2023-02-03T05:20:32;100988.97;;;9.55;100.00
18500;BME280;9379;52.134;11.576;2023-02-03T05:22:59;100980.75;;;9.47;100.00
18500;BME280;9379;52.134;11.576;2023-02-03T05:25:26;100970.13;;;9.58;100.00
18500;BME280;9379;52.134;11.576;2023-02-03T05:27:53;100956.53;;;9.63;100.00
18500;BME280;9379;52.134;11.576;2023-02-03T05:30:19;100974.97;;;9.64;100.00
18500;BME280;9379;52.134;11.576;2023-02-03T05:32:48;100958.22;;;9.75;100.00
18500;BME280;9379;52.134;11.576;2023-02-03T05:35:15;100957.38;;;9.52;100.00
18500;BME280;9379;52.134;11.576;2023-02-03T05:37:43;100943.72;;;9.68;99.66
18500;BME280;9379;52.134;11.576;2023-02-03T05:40:10;100945.28;;;9.71;99.92
18500;BME280;9379;52.134;11.576;2023-02-03T05:42:55;100923.34;;;9.69;99.38
18500;BME280;9379;52.134;11.576;2023-02-03T05:45:22;100928.06;;;9.65;99.04
18500;BME280;9379;52.134;11.576;2023-02-03T05:47:50;100922.25;;;9.49;99.94
18500;BME280;9379;52.134;11.576;2023-02-03T05:50:17;100928.06;;;9.54;100.00
18500;BME280;9379;52.134;11.576;2023-02-03T05:52:43;100933.97;;;9.57;100.00
18500;BME280;9379;52.134;11.576;2023-02-03T05:55:10;100934.78;;;9.69;99.70
18500;BME280;9379;52.134;11.576;2023-02-03T05:57:37;100916.09;;;9.71;99.18
18500;BME280;9379;52.134;11.576;2023-02-03T06:00:04;100913.09;;;9.64;99.04
18500;BME280;9379;52.134;11.576;2023-02-03T06:02:32;100923.34;;;9.69;98.98
18500;BME280;9379;52.134;11.576;2023-02-03T06:05:00;100909.72;;;9.73;98.55
18500;BME280;9379;52.134;11.576;2023-02-03T06:07:27;100925.75;;;9.72;99.32
18500;BME280;9379;52.134;11.576;2023-02-03T06:09:53;100904.63;;;9.70;99.29
18500;BME280;9379;52.134;11.576;2023-02-03T06:12:20;100892.72;;;9.64;98.66
18500;BME280;9379;52.134;11.576;2023-02-03T06:14:47;100899.09;;;9.73;98.40
18500;BME280;9379;52.134;11.576;2023-02-03T06:17:14;100894.16;;;9.69;98.45
18500;BME280;9379;52.134;11.576;2023-02-03T06:19:41;100891.97;;;9.74;98.24
18500;BME280;9379;52.134;11.576;2023-02-03T06:22:09;100899.81;;;9.75;97.98
18500;BME280;9379;52.134;11.576;2023-02-03T06:24:35;100901.72;;;9.96;97.48
18500;BME280;9379;52.134;11.576;2023-02-03T06:27:02;100895.22;;;9.77;97.82
18500;BME280;9379;52.134;11.576;2023-02-03T06:29:29;100893.88;;;9.83;97.45
18500;BME280;9379;52.134;11.576;2023-02-03T06:31:56;100886.91;;;9.71;98.24
18500;BME280;9379;52.134;11.576;2023-02-03T06:34:22;100877.88;;;9.62;98.08
18500;BME280;9379;52.134;11.576;2023-02-03T06:36:49;100874.38;;;9.73;98.03
18500;BME280;9379;52.134;11.576;2023-02-03T06:39:17;100883.63;;;9.78;98.12
18500;BME280;9379;52.134;11.576;2023-02-03T06:41:44;100869.41;;;9.79;98.06
18500;BME280;9379;52.134;11.576;2023-02-03T06:44:11;100879.63;;;9.84;97.58
18500;BME280;9379;52.134;11.576;2023-02-03T06:46:38;100863.84;;;9.71;98.05
18500;BME280;9379;52.134;11.576;2023-02-03T06:49:04;100867.47;;;9.81;97.95
18500;BME280;9379;52.134;11.576;2023-02-03T06:51:31;100865.19;;;9.77;97.31
18500;BME280;9379;52.134;11.576;2023-02-03T06:53:58;100868.31;;;9.82;97.47
18500;BME280;9379;52.134;11.576;2023-02-03T06:56:26;100866.38;;;9.84;97.90
18500;BME280;9379;52.134;11.576;2023-02-03T06:58:53;100877.97;;;9.72;98.51
18500;BME280;9379;52.134;11.576;2023-02-03T07:01:20;100869.00;;;9.84;98.74
18500;BME280;9379;52.134;11.576;2023-02-03T07:03:46;100859.16;;;9.75;98.90
18500;BME280;9379;52.134;11.576;2023-02-03T07:06:13;100835.97;;;9.88;98.35
18500;BME280;9379;52.134;11.576;2023-02-03T07:08:40;100836.09;;;9.86;98.67
18500;BME280;9379;52.134;11.576;2023-02-03T07:11:07;100824.84;;;9.83;98.67
18500;BME280;9379;52.134;11.576;2023-02-03T07:13:35;100818.84;;;9.81;98.31
18500;BME280;9379;52.134;11.576;2023-02-03T07:16:03;100806.41;;;9.81;98.22
18500;BME280;9379;52.134;11.576;2023-02-03T07:18:30;100800.22;;;9.92;97.53
18500;BME280;9379;52.134;11.576;2023-02-03T07:20:57;100799.63;;;9.88;97.40
18500;BME280;9379;52.134;11.576;2023-02-03T07:23:24;100788.94;;;9.79;97.66
18500;BME280;9379;52.134;11.576;2023-02-03T07:25:51;100796.50;;;9.83;97.86
18500;BME280;9379;52.134;11.576;2023-02-03T07:28:17;100791.81;;;9.87;97.77
18500;BME280;9379;52.134;11.576;2023-02-03T07:30:47;100791.09;;;9.85;98.13
18500;BME280;9379;52.134;11.576;2023-02-03T07:33:14;100803.25;;;9.87;98.37
18500;BME280;9379;52.134;11.576;2023-02-03T07:35:41;100784.91;;;9.96;98.19
18500;BME280;9379;52.134;11.576;2023-02-03T07:38:07;100791.41;;;9.91;98.48
18500;BME280;9379;52.134;11.576;2023-02-03T07:40:34;100795.44;;;9.86;99.06
18500;BME280;9379;52.134;11.576;2023-02-03T07:43:01;100789.78;;;9.79;99.63
18500;BME280;9379;52.134;11.576;2023-02-03T07:45:28;100795.66;;;9.83;99.39
18500;BME280;9379;52.134;11.576;2023-02-03T07:47:56;100781.31;;;9.85;99.30
18500;BME280;9379;52.134;11.576;2023-02-03T07:50:23;100790.13;;;9.86;99.63
18500;BME280;9379;52.134;11.576;2023-02-03T07:52:50;100784.81;;;9.86;99.66
18500;BME280;9379;52.134;11.576;2023-02-03T07:55:17;100786.44;;;9.98;99.12
18500;BME280;9379;52.134;11.576;2023-02-03T07:57:44;100783.88;;;10.08;98.76
18500;BME280;9379;52.134;11.576;2023-02-03T08:00:12;100781.81;;;10.11;98.85
18500;BME280;9379;52.134;11.576;2023-02-03T08:02:40;100773.63;;;10.03;99.71
18500;BME280;9379;52.134;11.576;2023-02-03T08:05:09;100762.69;;;9.97;99.90
18500;BME280;9379;52.134;11.576;2023-02-03T08:07:36;100757.91;;;10.11;100.00
18500;BME280;9379;52.134;11.576;2023-02-03T08:10:05;100756.59;;;10.06;99.69
18500;BME280;9379;52.134;11.576;2023-02-03T08:12:32;100748.84;;;10.14;99.82
18500;BME280;9379;52.134;11.576;2023-02-03T08:14:59;100751.94;;;9.98;100.00
18500;BME280;9379;52.134;11.576;2023-02-03T08:17:26;100760.91;;;9.86;100.00
18500;BME280;9379;52.134;11.576;2023-02-03T08:19:53;100748.63;;;10.06;100.00
18500;BME280;9379;52.134;11.576;2023-02-03T08:22:21;100742.34;;;9.86;100.00
18500;BME280;9379;52.134;11.576;2023-02-03T08:24:48;100739.59;;;10.08;100.00
18500;BME280;9379;52.134;11.576;2023-02-03T08:27:17;100747.06;;;10.03;100.00
18500;BME280;9379;52.134;11.576;2023-02-03T08:29:44;100749.59;;;10.05;100.00
18500;BME280;9379;52.134;11.576;2023-02-03T08:32:13;100746.75;;;10.17;100.00
18500;BME280;9379;52.134;11.576;2023-02-03T08:34:40;100731.41;;;10.00;100.00
18500;BME280;9379;52.134;11.576;2023-02-03T08:37:11;100734.28;;;10.08;100.00
18500;BME280;9379;52.134;11.576;2023-02-03T08:39:40;100731.91;;;9.94;100.00
18500;BME280;9379;52.134;11.576;2023-02-03T08:42:07;100737.75;;;10.09;100.00
18500;BME280;9379;52.134;11.576;2023-02-03T08:44:34;100741.16;;;10.32;100.00
18500;BME280;9379;52.134;11.576;2023-02-03T08:47:01;100734.28;;;10.08;100.00
18500;BME280;9379;52.134;11.576;2023-02-03T08:49:28;100757.94;;;10.32;100.00
18500;BME280;9379;52.134;11.576;2023-02-03T08:51:56;100743.03;;;10.20;100.00
18500;BME280;9379;52.134;11.576;2023-02-03T08:54:23;100736.66;;;10.11;100.00
18500;BME280;9379;52.134;11.576;2023-02-03T08:56:52;100727.16;;;10.09;100.00
18500;BME280;9379;52.134;11.576;2023-02-03T08:59:19;100728.56;;;10.13;100.00
18500;BME280;9379;52.134;11.576;2023-02-03T09:01:45;100751.19;;;10.07;100.00
18500;BME280;9379;52.134;11.576;2023-02-03T09:04:13;100749.25;;;10.30;100.00
18500;BME280;9379;52.134;11.576;2023-02-03T09:06:42;100724.22;;;10.12;100.00
18500;BME280;9379;52.134;11.576;2023-02-03T09:09:09;100739.38;;;10.21;100.00
18500;BME280;9379;52.134;11.576;2023-02-03T09:11:36;100719.94;;;10.00;100.00
18500;BME280;9379;52.134;11.576;2023-02-03T09:14:04;100728.56;;;10.13;100.00
18500;BME280;9379;52.134;11.576;2023-02-03T09:16:31;100727.16;;;10.09;100.00
18500;BME280;9379;52.134;11.576;2023-02-03T09:18:57;100712.50;;;10.14;100.00
18500;BME280;9379;52.134;11.576;2023-02-03T09:21:24;100699.69;;;10.19;100.00
18500;BME280;9379;52.134;11.576;2023-02-03T09:23:51;100701.09;;;10.03;100.00
18500;BME280;9379;52.134;11.576;2023-02-03T09:26:18;100686.63;;;10.16;100.00
18500;BME280;9379;52.134;11.576;2023-02-03T09:28:45;100686.63;;;10.16;100.00
18500;BME280;9379;52.134;11.576;2023-02-03T09:31:14;100706.88;;;10.29;100.00
18500;BME280;9379;52.134;11.576;2023-02-03T09:33:43;100714.00;;;10.28;100.00
18500;BME280;9379;52.134;11.576;2023-02-03T09:36:10;100719.19;;;10.30;100.00
18500;BME280;9379;52.134;11.576;2023-02-03T09:38:37;100723.41;;;10.32;100.00
18500;BME280;9379;52.134;11.576;2023-02-03T09:41:13;100735.47;;;10.36;100.00
18500;BME280;9379;52.134;11.576;2023-02-03T09:43:47;100721.84;;;10.30;100.00
18500;BME280;9379;52.134;11.576;2023-02-03T09:46:20;100709.88;;;10.35;100.00
18500;BME280;9379;52.134;11.576;2023-02-03T09:48:52;100718.81;;;10.34;100.00
18500;BME280;9379;52.134;11.576;2023-02-03T09:51:22;100724.84;;;10.36;100.00
18500;BME280;9379;52.134;11.576;2023-02-03T09:53:57;100733.00;;;10.44;100.00
18500;BME280;9379;52.134;11.576;2023-02-03T09:56:28;100716.16;;;10.34;100.00
18500;BME280;9379;52.134;11.576;2023-02-03T09:58:57;100726.97;;;10.42;100.00
18500;BME280;9379;52.134;11.576;2023-02-03T10:01:29;100729.56;;;10.33;100.00
18500;BME280;9379;52.134;11.576;2023-02-03T10:04:02;100717.91;;;10.24;100.00
18500;BME280;9379;52.134;11.576;2023-02-03T10:06:32;100705.94;;;10.18;100.00
18500;BME280;9379;52.134;11.576;2023-02-03T10:09:25;100725.91;;;10.13;100.00
18500;BME280;9379;52.134;11.576;2023-02-03T10:12:15;100722.75;;;10.19;100.00
18500;BME280;9379;52.134;11.576;2023-02-03T10:14:55;100729.28;;;10.15;100.00
18500;BME280;9379;52.134;11.576;2023-02-03T10:17:30;100736.03;;;10.19;100.00
18500;BME280;9379;52.134;11.576;2023-02-03T10:20:03;100740.84;;;10.25;100.00
18500;BME280;9379;52.134;11.576;2023-02-03T10:22:35;100737.78;;;10.30;100.00
18500;BME280;9379;52.134;11.576;2023-02-03T10:25:06;100747.91;;;10.36;100.00
18500;BME280;9379;52.134;11.576;2023-02-03T10:27:42;100739.31;;;10.53;100.00
18500;BME280;9379;52.134;11.576;2023-02-03T10:30:17;100735.31;;;10.59;100.00
18500;BME280;9379;52.134;11.576;2023-02-03T10:32:48;100745.03;;;10.48;100.00
18500;BME280;9379;52.134;11.576;2023-02-03T10:35:15;100729.91;;;10.70;100.00
18500;BME280;9379;52.134;11.576;2023-02-03T10:37:44;100738.03;;;10.47;100.00
18500;BME280;9379;52.134;11.576;2023-02-03T10:40:14;100750.41;;;10.58;100.00
18500;BME280;9379;52.134;11.576;2023-02-03T10:42:42;100743.47;;;10.67;100.00
18500;BME280;9379;52.134;11.576;2023-02-03T10:45:28;100739.44;;;10.72;100.00
18500;BME280;9379;52.134;11.576;2023-02-03T10:47:57;100745.78;;;10.60;100.00
18500;BME280;9379;52.134;11.576;2023-02-03T10:50:25;100742.78;;;10.74;100.00
18500;BME280;9379;52.134;11.576;2023-02-03T10:53:18;100734.94;;;10.73;100.00
18500;BME280;9379;52.134;11.576;2023-02-03T10:55:48;100731.84;;;10.68;100.00
18500;BME280;9379;52.134;11.576;2023-02-03T10:58:19;100733.69;;;10.67;100.00
18500;BME280;9379;52.134;11.576;2023-02-03T11:00:54;100733.00;;;10.44;100.00
18500;BME280;9379;52.134;11.576;2023-02-03T11:03:25;100741.88;;;10.34;100.00
18500;BME280;9379;52.134;11.576;2023-02-03T11:06:08;100745.19;;;10.15;100.00
18500;BME280;9379;52.134;11.576;2023-02-03T11:08:37;100733.38;;;10.19;100.00
18500;BME280;9379;52.134;11.576;2023-02-03T11:11:06;100737.75;;;10.09;100.00
18500;BME280;9379;52.134;11.576;2023-02-03T11:13:34;100735.16;;;9.98;100.00
18500;BME280;9379;52.134;11.576;2023-02-03T11:16:03;100747.19;;;10.02;100.00
18500;BME280;9379;52.134;11.576;2023-02-03T11:18:39;100755.97;;;10.13;100.00
18500;BME280;9379;52.134;11.576;2023-02-03T11:21:09;100761.53;;;10.10;100.00
18500;BME280;9379;52.134;11.576;2023-02-03T11:23:37;100760.28;;;10.14;100.00
18500;BME280;9379;52.134;11.576;2023-02-03T11:26:11;100752.25;;;10.05;100.00
18500;BME280;9379;52.134;11.576;2023-02-03T11:28:41;100749.78;;;9.92;100.00
18500;BME280;9379;52.134;11.576;2023-02-03T11:31:16;100760.63;;;10.00;96.46
18500;BME280;9379;52.134;11.576;2023-02-03T11:33:47;100759.28;;;9.74;91.46
18500;BME280;9379;52.134;11.576;2023-02-03T11:36:16;100762.09;;;9.93;92.20
18500;BME280;9379;52.134;11.576;2023-02-03T11:38:43;100769.59;;;9.88;90.76
18500;BME280;9379;52.134;11.576;2023-02-03T11:41:15;100765.13;;;9.88;91.11
18500;BME280;9379;52.134;11.576;2023-02-03T11:43:43;100782.78;;;9.78;89.38
18500;BME280;9379;52.134;11.576;2023-02-03T11:46:10;100790.44;;;9.92;89.70
18500;BME280;9379;52.134;11.576;2023-02-03T11:48:40;100790.47;;;9.81;89.46
18500;BME280;9379;52.134;11.576;2023-02-03T11:51:17;100801.59;;;9.86;88.98
18500;BME280;9379;52.134;11.576;2023-02-03T11:53:59;100812.06;;;10.20;90.74
18500;BME280;9379;52.134;11.576;2023-02-03T11:56:32;100822.75;;;10.09;90.23
18500;BME280;9379;52.134;11.576;2023-02-03T12:02:56;100835.50;;;9.72;90.57
18500;BME280;9379;52.134;11.576;2023-02-03T12:05:43;100821.94;;;9.97;89.94
18500;BME280;9379;52.134;11.576;2023-02-03T12:08:26;100844.06;;;9.86;89.70
18500;BME280;9379;52.134;11.576;2023-02-03T12:11:06;100828.03;;;9.77;90.16
18500;BME280;9379;52.134;11.576;2023-02-03T12:13:46;100827.84;;;10.01;89.84
18500;BME280;9379;52.134;11.576;2023-02-03T12:16:31;100824.38;;;9.89;89.67
18500;BME280;9379;52.134;11.576;2023-02-03T12:19:08;100825.63;;;10.06;89.11
18500;BME280;9379;52.134;11.576;2023-02-03T12:21:42;100828.13;;;9.86;89.55
18500;BME280;9379;52.134;11.576;2023-02-03T12:24:21;100825.00;;;9.81;89.18
18500;BME280;9379;52.134;11.576;2023-02-03T12:26:56;100822.78;;;9.98;90.14
18500;BME280;9379;52.134;11.576;2023-02-03T12:29:31;100819.47;;;10.05;89.60
18500;BME280;9379;52.134;11.576;2023-02-03T12:32:06;100820.13;;;10.30;88.87
18500;BME280;9379;52.134;11.576;2023-02-03T12:34:37;100818.91;;;10.02;88.54
18500;BME280;9379;52.134;11.576;2023-02-03T12:37:08;100828.69;;;10.01;88.87
18500;BME280;9379;52.134;11.576;2023-02-03T12:39:44;100826.41;;;9.97;88.06
18500;BME280;9379;52.134;11.576;2023-02-03T12:42:16;100840.13;;;10.02;88.12
18500;BME280;9379;52.134;11.576;2023-02-03T12:44:47;100830.88;;;9.96;88.51
18500;BME280;9379;52.134;11.576;2023-02-03T12:47:23;100831.78;;;10.06;88.87
18500;BME280;9379;52.134;11.576;2023-02-03T12:49:54;100834.78;;;10.13;88.01
18500;BME280;9379;52.134;11.576;2023-02-03T12:52:26;100843.59;;;10.25;88.31
18500;BME280;9379;52.134;11.576;2023-02-03T12:55:02;100848.94;;;10.02;88.16
18500;BME280;9379;52.134;11.576;2023-02-03T12:57:38;100854.97;;;10.04;87.66
18500;BME280;9379;52.134;11.576;2023-02-03T13:00:18;100860.44;;;9.91;87.24
18500;BME280;9379;52.134;11.576;2023-02-03T13:02:58;100853.06;;;9.95;86.82
18500;BME280;9379;52.134;11.576;2023-02-03T13:05:33;100859.97;;;10.18;86.82
18500;BME280;9379;52.134;11.576;2023-02-03T13:08:12;100859.66;;;10.12;86.98
18500;BME280;9379;52.134;11.576;2023-02-03T13:10:46;100853.59;;;10.21;85.25